Tropical Cyclones
[Index]
Main Index Home Page Stock Weather Photos Extreme Storms Discussion Storm News and Storm Chasing Reports Tropical Cyclones / Hurricanes / Typhoons Weather Data and Links Wild Fires / Bushfires Weather Observation Techniques Weather Picture Catalogue Tornado Pictures and Reports Stock Video Footage and DVDs for sale
Season 2006-2007 Tropical Cyclone PIERRE Track Map
Season 2006-2007 Summaries: [BoM-AU] [JTWC-AU] [JTWC-SIO] [JTWC-SPAC] [JTWC-SH]
<<- Previous TC | JTWC 2006-2007 Season | Next TC ->>

click for intensity scale information  Lat/long Grid: Show Hide

 Date Labels: Show Hide

Joint Typhoon Warning Centre Cyclone Data

Name: PIERRE

15 May 2007 12:00 UTC to 23 May 2007 00:00 UTC

    date/time    lat    long     hPa   cat  kts
2007-05-15 12   10.3   157.7    1006         15          
2007-05-15 18   10.5   157.8    1004         20          
2007-05-16 00   10.9   157.6    1002         25          
2007-05-16 06   11.1   157.3    1000         30          
2007-05-16 12   11.2   156.8    1000         30          
2007-05-16 18   10.9   156.5    1000         30          
2007-05-17 00   10.7   156.3    1000         30          
2007-05-17 06   10.5   155.9    1000         30          
2007-05-17 12   10.6   155.3    1000         30          
2007-05-17 18   10.8   154.6    1000         30          
2007-05-18 00   11.0   153.8    1000         30          
2007-05-18 06   10.9   153.0    1000         30          
2007-05-18 12   10.4   152.4    1000         30          
2007-05-18 18    9.7   152.1    1000         30          
2007-05-19 00    9.2   151.6    1000         30          
2007-05-19 06    8.9   151.1    1002         25          
2007-05-19 12    8.8   150.5    1004         20          
2007-05-19 18    9.0   149.9    1004         20          
2007-05-20 00    9.4   149.3    1004         20          
2007-05-20 06   10.0   148.4    1004         20          
2007-05-20 12   10.6   147.4    1006         15          
2007-05-20 18   10.9   146.5    1006         15          
2007-05-21 00   11.1   145.7    1006         15          
2007-05-21 06   11.2   145.0    1010         15          
2007-05-21 12   11.1   144.4    1010         15          
2007-05-21 18   10.9   143.6    1010         15          
2007-05-22 00   10.6   142.7    1010         15          
2007-05-22 06   10.3   142.1    1010         15          
2007-05-22 12   10.3   140.9    1010         15          
2007-05-22 18   10.5   139.6    1010         15          
2007-05-23 00   10.7   138.4    1010         15          
Winds are 1-min average.

Tropical cyclone tracks developed by Michael Bath using data from the Joint Typhoon Warning Centre Best Tracks and Google Maps.


[Australian Severe Weather index] [Copyright Notice] [Email Contacts] [Search This Site] [Privacy Policy]
Document: tropical_cyclone_pierre.htm Updated: 28 June 2017